sensor_id;sensor_type;location;lat;lon;timestamp;P1;durP1;ratioP1;P2;durP2;ratioP2
5341;SDS011;2693;48.822;9.062;2023-12-29T00:00:38;2.92;;;2.33;;
5341;SDS011;2693;48.822;9.062;2023-12-29T00:03:04;3.08;;;2.60;;
5341;SDS011;2693;48.822;9.062;2023-12-29T00:05:30;3.45;;;2.50;;
5341;SDS011;2693;48.822;9.062;2023-12-29T00:07:55;2.45;;;2.15;;
5341;SDS011;2693;48.822;9.062;2023-12-29T00:10:21;3.13;;;2.35;;
5341;SDS011;2693;48.822;9.062;2023-12-29T00:12:46;4.13;;;2.40;;
5341;SDS011;2693;48.822;9.062;2023-12-29T00:15:11;2.97;;;2.50;;
5341;SDS011;2693;48.822;9.062;2023-12-29T00:17:37;3.35;;;2.47;;
5341;SDS011;2693;48.822;9.062;2023-12-29T00:20:05;3.17;;;2.80;;
5341;SDS011;2693;48.822;9.062;2023-12-29T00:22:30;3.33;;;2.58;;
5341;SDS011;2693;48.822;9.062;2023-12-29T00:24:56;3.72;;;2.38;;
5341;SDS011;2693;48.822;9.062;2023-12-29T00:27:21;2.38;;;2.17;;
5341;SDS011;2693;48.822;9.062;2023-12-29T00:29:47;3.42;;;2.53;;
5341;SDS011;2693;48.822;9.062;2023-12-29T00:32:12;3.30;;;2.80;;
5341;SDS011;2693;48.822;9.062;2023-12-29T00:34:38;4.05;;;2.63;;
5341;SDS011;2693;48.822;9.062;2023-12-29T00:37:03;3.30;;;2.67;;
5341;SDS011;2693;48.822;9.062;2023-12-29T00:39:30;3.65;;;2.65;;
5341;SDS011;2693;48.822;9.062;2023-12-29T00:42:03;3.47;;;2.60;;
5341;SDS011;2693;48.822;9.062;2023-12-29T00:44:29;4.28;;;2.65;;
5341;SDS011;2693;48.822;9.062;2023-12-29T00:46:54;2.95;;;2.65;;
5341;SDS011;2693;48.822;9.062;2023-12-29T00:49:19;4.72;;;2.58;;
5341;SDS011;2693;48.822;9.062;2023-12-29T00:51:47;2.78;;;2.30;;
5341;SDS011;2693;48.822;9.062;2023-12-29T00:54:13;3.70;;;2.70;;
5341;SDS011;2693;48.822;9.062;2023-12-29T00:56:38;3.58;;;2.70;;
5341;SDS011;2693;48.822;9.062;2023-12-29T00:59:03;3.65;;;2.88;;
5341;SDS011;2693;48.822;9.062;2023-12-29T01:01:32;3.45;;;2.83;;
5341;SDS011;2693;48.822;9.062;2023-12-29T01:03:59;3.13;;;2.67;;
5341;SDS011;2693;48.822;9.062;2023-12-29T01:06:24;4.38;;;2.95;;
5341;SDS011;2693;48.822;9.062;2023-12-29T01:08:49;3.47;;;2.65;;
5341;SDS011;2693;48.822;9.062;2023-12-29T01:11:15;3.97;;;2.95;;
5341;SDS011;2693;48.822;9.062;2023-12-29T01:13:40;4.10;;;2.60;;
5341;SDS011;2693;48.822;9.062;2023-12-29T01:16:05;2.90;;;2.60;;
5341;SDS011;2693;48.822;9.062;2023-12-29T01:18:31;4.47;;;2.58;;
5341;SDS011;2693;48.822;9.062;2023-12-29T01:20:57;4.25;;;2.80;;
5341;SDS011;2693;48.822;9.062;2023-12-29T01:23:22;4.00;;;3.08;;
5341;SDS011;2693;48.822;9.062;2023-12-29T01:25:47;2.90;;;2.60;;
5341;SDS011;2693;48.822;9.062;2023-12-29T01:28:13;3.53;;;2.80;;
5341;SDS011;2693;48.822;9.062;2023-12-29T01:30:38;3.03;;;2.53;;
5341;SDS011;2693;48.822;9.062;2023-12-29T01:33:03;4.32;;;2.70;;
5341;SDS011;2693;48.822;9.062;2023-12-29T01:35:29;3.28;;;2.60;;
5341;SDS011;2693;48.822;9.062;2023-12-29T01:37:54;4.53;;;2.90;;
5341;SDS011;2693;48.822;9.062;2023-12-29T01:40:21;3.92;;;2.55;;
5341;SDS011;2693;48.822;9.062;2023-12-29T01:42:47;2.85;;;2.50;;
5341;SDS011;2693;48.822;9.062;2023-12-29T01:45:22;2.97;;;2.50;;
5341;SDS011;2693;48.822;9.062;2023-12-29T01:47:49;3.90;;;2.38;;
5341;SDS011;2693;48.822;9.062;2023-12-29T01:50:16;4.30;;;2.65;;
5341;SDS011;2693;48.822;9.062;2023-12-29T01:52:43;2.88;;;2.58;;
5341;SDS011;2693;48.822;9.062;2023-12-29T01:55:09;2.95;;;2.60;;
5341;SDS011;2693;48.822;9.062;2023-12-29T01:57:36;3.20;;;2.45;;
5341;SDS011;2693;48.822;9.062;2023-12-29T02:00:03;2.47;;;2.28;;
5341;SDS011;2693;48.822;9.062;2023-12-29T02:02:30;5.03;;;2.97;;
5341;SDS011;2693;48.822;9.062;2023-12-29T02:04:56;4.30;;;2.75;;
5341;SDS011;2693;48.822;9.062;2023-12-29T02:07:23;3.35;;;2.70;;
5341;SDS011;2693;48.822;9.062;2023-12-29T02:09:48;3.08;;;2.78;;
5341;SDS011;2693;48.822;9.062;2023-12-29T02:12:14;2.63;;;2.42;;
5341;SDS011;2693;48.822;9.062;2023-12-29T02:14:39;4.07;;;2.67;;
5341;SDS011;2693;48.822;9.062;2023-12-29T02:17:15;4.65;;;3.05;;
5341;SDS011;2693;48.822;9.062;2023-12-29T02:19:52;4.40;;;3.17;;
5341;SDS011;2693;48.822;9.062;2023-12-29T02:22:18;3.95;;;2.92;;
5341;SDS011;2693;48.822;9.062;2023-12-29T02:24:47;4.63;;;3.15;;
5341;SDS011;2693;48.822;9.062;2023-12-29T02:32:28;4.18;;;2.80;;
5341;SDS011;2693;48.822;9.062;2023-12-29T02:34:54;6.25;;;3.17;;
5341;SDS011;2693;48.822;9.062;2023-12-29T02:37:20;3.58;;;3.05;;
5341;SDS011;2693;48.822;9.062;2023-12-29T02:39:46;4.80;;;3.10;;
5341;SDS011;2693;48.822;9.062;2023-12-29T02:42:11;3.85;;;3.10;;
5341;SDS011;2693;48.822;9.062;2023-12-29T02:44:36;4.18;;;3.42;;
5341;SDS011;2693;48.822;9.062;2023-12-29T02:47:02;4.05;;;3.47;;
5341;SDS011;2693;48.822;9.062;2023-12-29T02:49:29;5.03;;;3.25;;
5341;SDS011;2693;48.822;9.062;2023-12-29T02:51:54;3.88;;;2.83;;
5341;SDS011;2693;48.822;9.062;2023-12-29T02:54:19;5.05;;;3.08;;
5341;SDS011;2693;48.822;9.062;2023-12-29T02:56:45;4.20;;;3.22;;
5341;SDS011;2693;48.822;9.062;2023-12-29T02:59:10;5.28;;;3.05;;
5341;SDS011;2693;48.822;9.062;2023-12-29T03:01:35;3.85;;;2.83;;
5341;SDS011;2693;48.822;9.062;2023-12-29T03:04:01;3.83;;;3.20;;
5341;SDS011;2693;48.822;9.062;2023-12-29T03:06:26;3.30;;;3.00;;
5341;SDS011;2693;48.822;9.062;2023-12-29T03:08:51;3.65;;;2.90;;
5341;SDS011;2693;48.822;9.062;2023-12-29T03:11:17;4.00;;;3.55;;
5341;SDS011;2693;48.822;9.062;2023-12-29T03:13:42;3.90;;;3.40;;
5341;SDS011;2693;48.822;9.062;2023-12-29T03:16:08;3.53;;;3.20;;
5341;SDS011;2693;48.822;9.062;2023-12-29T03:18:34;3.28;;;2.90;;
5341;SDS011;2693;48.822;9.062;2023-12-29T03:21:03;7.15;;;3.15;;
5341;SDS011;2693;48.822;9.062;2023-12-29T03:23:29;4.78;;;2.97;;
5341;SDS011;2693;48.822;9.062;2023-12-29T03:25:55;4.35;;;3.38;;
5341;SDS011;2693;48.822;9.062;2023-12-29T03:28:20;3.80;;;3.40;;
5341;SDS011;2693;48.822;9.062;2023-12-29T03:30:45;4.07;;;3.45;;
5341;SDS011;2693;48.822;9.062;2023-12-29T03:33:11;4.72;;;3.00;;
5341;SDS011;2693;48.822;9.062;2023-12-29T03:35:36;3.42;;;3.00;;
5341;SDS011;2693;48.822;9.062;2023-12-29T03:38:01;3.75;;;3.10;;
5341;SDS011;2693;48.822;9.062;2023-12-29T03:40:27;5.10;;;3.45;;
5341;SDS011;2693;48.822;9.062;2023-12-29T03:42:52;5.85;;;3.30;;
5341;SDS011;2693;48.822;9.062;2023-12-29T03:45:18;3.95;;;3.03;;
5341;SDS011;2693;48.822;9.062;2023-12-29T03:47:43;4.20;;;3.30;;
5341;SDS011;2693;48.822;9.062;2023-12-29T03:50:08;4.20;;;3.15;;
5341;SDS011;2693;48.822;9.062;2023-12-29T03:52:34;4.82;;;3.83;;
5341;SDS011;2693;48.822;9.062;2023-12-29T03:54:59;3.28;;;2.97;;
5341;SDS011;2693;48.822;9.062;2023-12-29T03:57:24;3.92;;;3.30;;
5341;SDS011;2693;48.822;9.062;2023-12-29T03:59:50;3.60;;;3.10;;
5341;SDS011;2693;48.822;9.062;2023-12-29T04:02:15;5.00;;;3.05;;
5341;SDS011;2693;48.822;9.062;2023-12-29T04:04:42;5.65;;;2.90;;
5341;SDS011;2693;48.822;9.062;2023-12-29T04:07:08;4.15;;;3.03;;
5341;SDS011;2693;48.822;9.062;2023-12-29T04:09:33;3.03;;;2.70;;
5341;SDS011;2693;48.822;9.062;2023-12-29T04:11:58;3.63;;;3.08;;
5341;SDS011;2693;48.822;9.062;2023-12-29T04:14:24;4.85;;;2.75;;
5341;SDS011;2693;48.822;9.062;2023-12-29T04:16:49;4.05;;;2.80;;
5341;SDS011;2693;48.822;9.062;2023-12-29T04:19:15;4.07;;;2.80;;
5341;SDS011;2693;48.822;9.062;2023-12-29T04:21:40;2.67;;;2.38;;
5341;SDS011;2693;48.822;9.062;2023-12-29T04:24:05;3.97;;;3.00;;
5341;SDS011;2693;48.822;9.062;2023-12-29T04:26:37;5.00;;;3.28;;
5341;SDS011;2693;48.822;9.062;2023-12-29T04:29:02;3.88;;;2.70;;
5341;SDS011;2693;48.822;9.062;2023-12-29T04:31:28;4.57;;;3.25;;
5341;SDS011;2693;48.822;9.062;2023-12-29T04:33:53;3.55;;;3.10;;
5341;SDS011;2693;48.822;9.062;2023-12-29T04:36:19;3.63;;;2.85;;
5341;SDS011;2693;48.822;9.062;2023-12-29T04:38:44;3.30;;;2.83;;
5341;SDS011;2693;48.822;9.062;2023-12-29T04:41:11;3.78;;;2.88;;
5341;SDS011;2693;48.822;9.062;2023-12-29T04:43:37;3.35;;;3.05;;
5341;SDS011;2693;48.822;9.062;2023-12-29T04:46:02;3.15;;;2.75;;
5341;SDS011;2693;48.822;9.062;2023-12-29T04:48:28;4.85;;;2.90;;
5341;SDS011;2693;48.822;9.062;2023-12-29T04:50:53;3.53;;;2.90;;
5341;SDS011;2693;48.822;9.062;2023-12-29T04:53:18;3.38;;;3.00;;
5341;SDS011;2693;48.822;9.062;2023-12-29T04:55:44;3.20;;;2.90;;
5341;SDS011;2693;48.822;9.062;2023-12-29T04:58:09;3.97;;;3.30;;
5341;SDS011;2693;48.822;9.062;2023-12-29T05:00:34;4.10;;;2.75;;
5341;SDS011;2693;48.822;9.062;2023-12-29T05:03:00;3.28;;;2.53;;
5341;SDS011;2693;48.822;9.062;2023-12-29T05:05:25;3.28;;;2.63;;
5341;SDS011;2693;48.822;9.062;2023-12-29T05:07:50;5.13;;;2.60;;
5341;SDS011;2693;48.822;9.062;2023-12-29T05:10:16;3.15;;;2.70;;
5341;SDS011;2693;48.822;9.062;2023-12-29T05:12:41;3.60;;;2.65;;
5341;SDS011;2693;48.822;9.062;2023-12-29T05:15:06;3.45;;;2.80;;
5341;SDS011;2693;48.822;9.062;2023-12-29T05:17:32;2.55;;;2.35;;
5341;SDS011;2693;48.822;9.062;2023-12-29T05:19:57;5.13;;;2.53;;
5341;SDS011;2693;48.822;9.062;2023-12-29T05:22:23;5.47;;;2.90;;
5341;SDS011;2693;48.822;9.062;2023-12-29T05:24:48;3.40;;;2.70;;
5341;SDS011;2693;48.822;9.062;2023-12-29T05:27:13;2.72;;;2.50;;
5341;SDS011;2693;48.822;9.062;2023-12-29T05:29:39;2.92;;;2.72;;
5341;SDS011;2693;48.822;9.062;2023-12-29T05:32:05;3.40;;;2.65;;
5341;SDS011;2693;48.822;9.062;2023-12-29T05:34:30;2.95;;;2.55;;
5341;SDS011;2693;48.822;9.062;2023-12-29T05:36:56;4.70;;;2.92;;
5341;SDS011;2693;48.822;9.062;2023-12-29T05:39:21;3.80;;;2.80;;
5341;SDS011;2693;48.822;9.062;2023-12-29T05:41:47;3.97;;;2.97;;
5341;SDS011;2693;48.822;9.062;2023-12-29T05:44:12;3.33;;;2.65;;
5341;SDS011;2693;48.822;9.062;2023-12-29T05:46:37;3.75;;;2.67;;
5341;SDS011;2693;48.822;9.062;2023-12-29T05:49:03;3.17;;;2.67;;
5341;SDS011;2693;48.822;9.062;2023-12-29T05:51:28;3.53;;;2.55;;
5341;SDS011;2693;48.822;9.062;2023-12-29T05:53:54;3.67;;;2.97;;
5341;SDS011;2693;48.822;9.062;2023-12-29T05:56:19;6.80;;;3.42;;
5341;SDS011;2693;48.822;9.062;2023-12-29T05:58:45;3.65;;;3.13;;
5341;SDS011;2693;48.822;9.062;2023-12-29T06:01:10;3.55;;;2.83;;
5341;SDS011;2693;48.822;9.062;2023-12-29T06:03:36;3.78;;;3.15;;
5341;SDS011;2693;48.822;9.062;2023-12-29T06:06:01;4.18;;;3.28;;
5341;SDS011;2693;48.822;9.062;2023-12-29T06:08:27;4.45;;;3.13;;
5341;SDS011;2693;48.822;9.062;2023-12-29T06:10:52;3.40;;;3.03;;
5341;SDS011;2693;48.822;9.062;2023-12-29T06:13:18;4.20;;;3.00;;
5341;SDS011;2693;48.822;9.062;2023-12-29T06:15:43;3.90;;;3.28;;
5341;SDS011;2693;48.822;9.062;2023-12-29T06:18:09;4.72;;;3.28;;
5341;SDS011;2693;48.822;9.062;2023-12-29T06:20:34;4.55;;;3.08;;
5341;SDS011;2693;48.822;9.062;2023-12-29T06:23:00;4.43;;;3.42;;
5341;SDS011;2693;48.822;9.062;2023-12-29T06:25:25;6.68;;;3.30;;
5341;SDS011;2693;48.822;9.062;2023-12-29T06:27:51;4.35;;;3.50;;
5341;SDS011;2693;48.822;9.062;2023-12-29T06:30:16;4.75;;;3.95;;
5341;SDS011;2693;48.822;9.062;2023-12-29T06:32:42;5.25;;;3.45;;
5341;SDS011;2693;48.822;9.062;2023-12-29T06:35:07;5.00;;;3.20;;
5341;SDS011;2693;48.822;9.062;2023-12-29T06:37:35;4.28;;;3.30;;
5341;SDS011;2693;48.822;9.062;2023-12-29T06:40:01;6.40;;;3.60;;
5341;SDS011;2693;48.822;9.062;2023-12-29T06:42:27;3.72;;;2.90;;
5341;SDS011;2693;48.822;9.062;2023-12-29T06:44:52;3.60;;;3.10;;
5341;SDS011;2693;48.822;9.062;2023-12-29T06:47:18;5.80;;;3.72;;
5341;SDS011;2693;48.822;9.062;2023-12-29T06:49:43;4.57;;;3.25;;
5341;SDS011;2693;48.822;9.062;2023-12-29T06:52:08;3.72;;;2.90;;
5341;SDS011;2693;48.822;9.062;2023-12-29T06:54:34;4.70;;;3.15;;
5341;SDS011;2693;48.822;9.062;2023-12-29T06:56:59;3.30;;;2.83;;
5341;SDS011;2693;48.822;9.062;2023-12-29T06:59:25;4.88;;;3.65;;
5341;SDS011;2693;48.822;9.062;2023-12-29T07:01:50;6.45;;;3.25;;
5341;SDS011;2693;48.822;9.062;2023-12-29T07:04:16;3.83;;;2.80;;
5341;SDS011;2693;48.822;9.062;2023-12-29T07:06:41;4.43;;;3.17;;
5341;SDS011;2693;48.822;9.062;2023-12-29T07:09:07;3.85;;;2.70;;
5341;SDS011;2693;48.822;9.062;2023-12-29T07:11:33;4.32;;;2.97;;
5341;SDS011;2693;48.822;9.062;2023-12-29T07:13:59;4.03;;;2.80;;
5341;SDS011;2693;48.822;9.062;2023-12-29T07:16:24;3.67;;;2.92;;
5341;SDS011;2693;48.822;9.062;2023-12-29T07:18:50;2.95;;;2.50;;
5341;SDS011;2693;48.822;9.062;2023-12-29T07:21:17;3.95;;;2.75;;
5341;SDS011;2693;48.822;9.062;2023-12-29T07:23:43;4.35;;;3.05;;
5341;SDS011;2693;48.822;9.062;2023-12-29T07:26:08;3.53;;;2.58;;
5341;SDS011;2693;48.822;9.062;2023-12-29T07:28:34;3.55;;;2.70;;
5341;SDS011;2693;48.822;9.062;2023-12-29T07:30:59;3.38;;;2.70;;
5341;SDS011;2693;48.822;9.062;2023-12-29T07:33:25;3.03;;;2.50;;
5341;SDS011;2693;48.822;9.062;2023-12-29T07:35:51;2.83;;;2.47;;
5341;SDS011;2693;48.822;9.062;2023-12-29T07:38:16;3.45;;;2.47;;
5341;SDS011;2693;48.822;9.062;2023-12-29T07:40:41;2.33;;;2.05;;
5341;SDS011;2693;48.822;9.062;2023-12-29T07:43:07;2.90;;;2.42;;
5341;SDS011;2693;48.822;9.062;2023-12-29T07:45:33;2.65;;;2.13;;
5341;SDS011;2693;48.822;9.062;2023-12-29T07:47:58;2.50;;;2.08;;
5341;SDS011;2693;48.822;9.062;2023-12-29T07:50:24;2.70;;;2.20;;
5341;SDS011;2693;48.822;9.062;2023-12-29T07:52:49;2.60;;;2.20;;
5341;SDS011;2693;48.822;9.062;2023-12-29T07:55:14;2.28;;;2.08;;
5341;SDS011;2693;48.822;9.062;2023-12-29T07:57:43;3.40;;;2.03;;
5341;SDS011;2693;48.822;9.062;2023-12-29T08:00:09;2.45;;;2.25;;
5341;SDS011;2693;48.822;9.062;2023-12-29T08:02:34;3.40;;;2.67;;
5341;SDS011;2693;48.822;9.062;2023-12-29T08:05:00;3.33;;;2.00;;
5341;SDS011;2693;48.822;9.062;2023-12-29T08:07:25;2.90;;;2.20;;
5341;SDS011;2693;48.822;9.062;2023-12-29T08:09:51;2.65;;;2.22;;
5341;SDS011;2693;48.822;9.062;2023-12-29T08:12:16;3.05;;;2.33;;
5341;SDS011;2693;48.822;9.062;2023-12-29T08:14:42;2.60;;;2.33;;
5341;SDS011;2693;48.822;9.062;2023-12-29T08:17:07;2.67;;;2.20;;
5341;SDS011;2693;48.822;9.062;2023-12-29T08:19:33;3.38;;;2.58;;
5341;SDS011;2693;48.822;9.062;2023-12-29T08:21:58;2.72;;;2.33;;
5341;SDS011;2693;48.822;9.062;2023-12-29T08:24:23;4.20;;;2.40;;
5341;SDS011;2693;48.822;9.062;2023-12-29T08:26:49;2.50;;;2.30;;
5341;SDS011;2693;48.822;9.062;2023-12-29T08:29:14;2.47;;;2.28;;
5341;SDS011;2693;48.822;9.062;2023-12-29T08:31:40;3.22;;;2.40;;
5341;SDS011;2693;48.822;9.062;2023-12-29T08:34:06;3.03;;;2.40;;
5341;SDS011;2693;48.822;9.062;2023-12-29T08:36:31;2.22;;;1.90;;
5341;SDS011;2693;48.822;9.062;2023-12-29T08:38:57;2.78;;;2.15;;
5341;SDS011;2693;48.822;9.062;2023-12-29T08:41:22;7.07;;;2.55;;
5341;SDS011;2693;48.822;9.062;2023-12-29T08:43:48;2.38;;;2.10;;
5341;SDS011;2693;48.822;9.062;2023-12-29T08:46:13;2.90;;;2.10;;
5341;SDS011;2693;48.822;9.062;2023-12-29T08:48:38;2.45;;;2.20;;
5341;SDS011;2693;48.822;9.062;2023-12-29T08:51:04;3.38;;;2.15;;
5341;SDS011;2693;48.822;9.062;2023-12-29T08:53:30;2.95;;;2.17;;
5341;SDS011;2693;48.822;9.062;2023-12-29T08:55:59;2.33;;;1.98;;
5341;SDS011;2693;48.822;9.062;2023-12-29T08:58:24;2.10;;;1.90;;
5341;SDS011;2693;48.822;9.062;2023-12-29T09:00:49;3.35;;;2.40;;
5341;SDS011;2693;48.822;9.062;2023-12-29T09:03:15;2.60;;;2.17;;
5341;SDS011;2693;48.822;9.062;2023-12-29T09:05:40;3.60;;;2.65;;
5341;SDS011;2693;48.822;9.062;2023-12-29T09:08:06;2.38;;;2.08;;
5341;SDS011;2693;48.822;9.062;2023-12-29T09:10:31;3.03;;;2.25;;
5341;SDS011;2693;48.822;9.062;2023-12-29T09:12:56;2.50;;;2.20;;
5341;SDS011;2693;48.822;9.062;2023-12-29T09:15:22;2.58;;;2.17;;
5341;SDS011;2693;48.822;9.062;2023-12-29T09:17:48;2.30;;;2.10;;
5341;SDS011;2693;48.822;9.062;2023-12-29T09:20:13;3.40;;;2.08;;
5341;SDS011;2693;48.822;9.062;2023-12-29T09:22:39;2.78;;;1.98;;
5341;SDS011;2693;48.822;9.062;2023-12-29T09:25:05;2.38;;;2.17;;
5341;SDS011;2693;48.822;9.062;2023-12-29T09:27:30;3.40;;;2.08;;
5341;SDS011;2693;48.822;9.062;2023-12-29T09:29:56;2.20;;;2.00;;
5341;SDS011;2693;48.822;9.062;2023-12-29T09:32:21;2.25;;;1.75;;
5341;SDS011;2693;48.822;9.062;2023-12-29T09:34:46;2.30;;;2.05;;
5341;SDS011;2693;48.822;9.062;2023-12-29T09:37:12;1.98;;;1.73;;
5341;SDS011;2693;48.822;9.062;2023-12-29T09:39:37;3.83;;;2.03;;
5341;SDS011;2693;48.822;9.062;2023-12-29T09:42:03;2.08;;;1.90;;
5341;SDS011;2693;48.822;9.062;2023-12-29T09:44:29;2.10;;;1.83;;
5341;SDS011;2693;48.822;9.062;2023-12-29T09:46:57;2.25;;;1.65;;
5341;SDS011;2693;48.822;9.062;2023-12-29T09:49:26;1.80;;;1.52;;
5341;SDS011;2693;48.822;9.062;2023-12-29T09:51:52;2.20;;;1.60;;
5341;SDS011;2693;48.822;9.062;2023-12-29T09:54:17;2.08;;;1.60;;
5341;SDS011;2693;48.822;9.062;2023-12-29T09:56:43;2.08;;;1.65;;
5341;SDS011;2693;48.822;9.062;2023-12-29T09:59:09;2.13;;;1.45;;
5341;SDS011;2693;48.822;9.062;2023-12-29T10:01:36;1.60;;;1.50;;
5341;SDS011;2693;48.822;9.062;2023-12-29T10:04:02;1.58;;;1.33;;
5341;SDS011;2693;48.822;9.062;2023-12-29T10:06:27;1.63;;;1.20;;
5341;SDS011;2693;48.822;9.062;2023-12-29T10:08:56;1.70;;;1.00;;
5341;SDS011;2693;48.822;9.062;2023-12-29T10:11:22;1.88;;;1.77;;
5341;SDS011;2693;48.822;9.062;2023-12-29T10:13:49;1.10;;;1.00;;
5341;SDS011;2693;48.822;9.062;2023-12-29T10:18:44;1.95;;;1.23;;
5341;SDS011;2693;48.822;9.062;2023-12-29T10:21:15;1.20;;;1.10;;
5341;SDS011;2693;48.822;9.062;2023-12-29T10:23:58;1.45;;;1.30;;
5341;SDS011;2693;48.822;9.062;2023-12-29T10:26:28;1.20;;;1.08;;
5341;SDS011;2693;48.822;9.062;2023-12-29T10:28:54;1.85;;;1.00;;
5341;SDS011;2693;48.822;9.062;2023-12-29T10:31:22;0.93;;;0.88;;
5341;SDS011;2693;48.822;9.062;2023-12-29T10:33:48;2.88;;;1.30;;
5341;SDS011;2693;48.822;9.062;2023-12-29T10:36:16;1.08;;;0.98;;
5341;SDS011;2693;48.822;9.062;2023-12-29T10:38:42;1.85;;;1.02;;
5341;SDS011;2693;48.822;9.062;2023-12-29T10:41:17;1.20;;;1.10;;
5341;SDS011;2693;48.822;9.062;2023-12-29T10:43:44;2.25;;;0.95;;
5341;SDS011;2693;48.822;9.062;2023-12-29T10:46:12;0.80;;;0.80;;
5341;SDS011;2693;48.822;9.062;2023-12-29T10:48:38;0.90;;;0.90;;
5341;SDS011;2693;48.822;9.062;2023-12-29T10:51:04;1.00;;;0.80;;
5341;SDS011;2693;48.822;9.062;2023-12-29T10:53:33;1.45;;;0.82;;
5341;SDS011;2693;48.822;9.062;2023-12-29T10:55:59;0.80;;;0.80;;
5341;SDS011;2693;48.822;9.062;2023-12-29T10:58:28;1.00;;;0.82;;
5341;SDS011;2693;48.822;9.062;2023-12-29T11:00:58;1.45;;;0.90;;
5341;SDS011;2693;48.822;9.062;2023-12-29T11:03:24;0.80;;;0.70;;
5341;SDS011;2693;48.822;9.062;2023-12-29T11:05:50;1.02;;;1.00;;
5341;SDS011;2693;48.822;9.062;2023-12-29T11:08:17;1.35;;;0.73;;
5341;SDS011;2693;48.822;9.062;2023-12-29T11:10:43;0.77;;;0.77;;
5341;SDS011;2693;48.822;9.062;2023-12-29T11:13:12;1.00;;;0.90;;
5341;SDS011;2693;48.822;9.062;2023-12-29T11:15:41;1.40;;;0.90;;
5341;SDS011;2693;48.822;9.062;2023-12-29T11:18:08;1.00;;;0.90;;
5341;SDS011;2693;48.822;9.062;2023-12-29T11:20:34;1.00;;;0.90;;
5341;SDS011;2693;48.822;9.062;2023-12-29T11:23:00;1.75;;;0.95;;
5341;SDS011;2693;48.822;9.062;2023-12-29T11:25:26;1.27;;;0.80;;
5341;SDS011;2693;48.822;9.062;2023-12-29T11:27:52;0.77;;;0.70;;
5341;SDS011;2693;48.822;9.062;2023-12-29T11:30:20;0.65;;;0.65;;
5341;SDS011;2693;48.822;9.062;2023-12-29T11:32:47;0.77;;;0.70;;
5341;SDS011;2693;48.822;9.062;2023-12-29T11:35:18;0.60;;;0.60;;
5341;SDS011;2693;48.822;9.062;2023-12-29T11:37:51;1.38;;;0.88;;
5341;SDS011;2693;48.822;9.062;2023-12-29T11:40:25;0.85;;;0.73;;
5341;SDS011;2693;48.822;9.062;2023-12-29T11:42:54;0.77;;;0.77;;
5341;SDS011;2693;48.822;9.062;2023-12-29T11:47:57;0.90;;;0.75;;
5341;SDS011;2693;48.822;9.062;2023-12-29T11:52:57;0.93;;;0.80;;
5341;SDS011;2693;48.822;9.062;2023-12-29T11:55:27;1.27;;;0.70;;
5341;SDS011;2693;48.822;9.062;2023-12-29T11:57:54;2.75;;;1.10;;
5341;SDS011;2693;48.822;9.062;2023-12-29T12:00:20;0.85;;;0.85;;
5341;SDS011;2693;48.822;9.062;2023-12-29T12:02:45;1.00;;;0.85;;
5341;SDS011;2693;48.822;9.062;2023-12-29T12:05:10;1.15;;;1.05;;
5341;SDS011;2693;48.822;9.062;2023-12-29T12:12:45;0.98;;;0.90;;
5341;SDS011;2693;48.822;9.062;2023-12-29T12:15:44;1.40;;;1.00;;
5341;SDS011;2693;48.822;9.062;2023-12-29T12:18:05;0.93;;;0.70;;
5341;SDS011;2693;48.822;9.062;2023-12-29T12:20:32;0.93;;;0.80;;
5341;SDS011;2693;48.822;9.062;2023-12-29T12:23:02;1.10;;;0.85;;
5341;SDS011;2693;48.822;9.062;2023-12-29T12:25:30;0.70;;;0.70;;
5341;SDS011;2693;48.822;9.062;2023-12-29T12:27:59;0.80;;;0.80;;
5341;SDS011;2693;48.822;9.062;2023-12-29T12:30:26;0.90;;;0.80;;
5341;SDS011;2693;48.822;9.062;2023-12-29T12:32:58;0.73;;;0.73;;
5341;SDS011;2693;48.822;9.062;2023-12-29T12:35:24;1.00;;;0.90;;
5341;SDS011;2693;48.822;9.062;2023-12-29T12:38:06;0.80;;;0.80;;
5341;SDS011;2693;48.822;9.062;2023-12-29T12:40:37;0.90;;;0.80;;
5341;SDS011;2693;48.822;9.062;2023-12-29T12:43:03;1.00;;;0.88;;
5341;SDS011;2693;48.822;9.062;2023-12-29T12:45:28;1.20;;;0.98;;
5341;SDS011;2693;48.822;9.062;2023-12-29T12:47:55;1.15;;;0.88;;
5341;SDS011;2693;48.822;9.062;2023-12-29T12:50:28;1.00;;;0.90;;
5341;SDS011;2693;48.822;9.062;2023-12-29T12:52:55;1.00;;;0.90;;
5341;SDS011;2693;48.822;9.062;2023-12-29T12:55:22;1.63;;;1.10;;
5341;SDS011;2693;48.822;9.062;2023-12-29T12:57:48;1.15;;;0.90;;
5341;SDS011;2693;48.822;9.062;2023-12-29T13:00:14;1.38;;;1.02;;
5341;SDS011;2693;48.822;9.062;2023-12-29T13:02:40;1.00;;;0.90;;
5341;SDS011;2693;48.822;9.062;2023-12-29T13:05:06;1.15;;;1.00;;
5341;SDS011;2693;48.822;9.062;2023-12-29T13:07:33;1.77;;;1.05;;
5341;SDS011;2693;48.822;9.062;2023-12-29T13:09:59;1.08;;;0.98;;
5341;SDS011;2693;48.822;9.062;2023-12-29T13:12:26;1.15;;;1.05;;
5341;SDS011;2693;48.822;9.062;2023-12-29T13:14:51;0.90;;;0.90;;
5341;SDS011;2693;48.822;9.062;2023-12-29T13:17:17;1.00;;;0.90;;
5341;SDS011;2693;48.822;9.062;2023-12-29T13:19:42;1.30;;;1.20;;
5341;SDS011;2693;48.822;9.062;2023-12-29T13:22:09;0.95;;;0.90;;
5341;SDS011;2693;48.822;9.062;2023-12-29T13:24:38;0.98;;;0.90;;
5341;SDS011;2693;48.822;9.062;2023-12-29T13:27:07;1.08;;;0.93;;
5341;SDS011;2693;48.822;9.062;2023-12-29T13:29:36;1.67;;;0.98;;
5341;SDS011;2693;48.822;9.062;2023-12-29T13:32:21;1.42;;;1.13;;
5341;SDS011;2693;48.822;9.062;2023-12-29T13:37:25;1.10;;;1.00;;
5341;SDS011;2693;48.822;9.062;2023-12-29T13:40:16;1.10;;;1.00;;
5341;SDS011;2693;48.822;9.062;2023-12-29T13:42:48;1.23;;;1.13;;
5341;SDS011;2693;48.822;9.062;2023-12-29T13:45:16;1.35;;;1.10;;
5341;SDS011;2693;48.822;9.062;2023-12-29T13:47:42;1.05;;;0.93;;
5341;SDS011;2693;48.822;9.062;2023-12-29T13:50:10;1.35;;;1.00;;
5341;SDS011;2693;48.822;9.062;2023-12-29T13:52:37;1.20;;;1.10;;
5341;SDS011;2693;48.822;9.062;2023-12-29T13:55:02;1.20;;;1.10;;
5341;SDS011;2693;48.822;9.062;2023-12-29T13:57:35;1.35;;;1.05;;
5341;SDS011;2693;48.822;9.062;2023-12-29T14:00:16;1.50;;;1.10;;
5341;SDS011;2693;48.822;9.062;2023-12-29T14:02:45;1.02;;;0.93;;
5341;SDS011;2693;48.822;9.062;2023-12-29T14:05:24;1.90;;;1.30;;
5341;SDS011;2693;48.822;9.062;2023-12-29T14:07:55;1.92;;;1.08;;
5341;SDS011;2693;48.822;9.062;2023-12-29T14:10:35;1.43;;;1.23;;
5341;SDS011;2693;48.822;9.062;2023-12-29T14:13:12;1.20;;;1.10;;
5341;SDS011;2693;48.822;9.062;2023-12-29T14:15:40;1.17;;;1.08;;
5341;SDS011;2693;48.822;9.062;2023-12-29T14:20:41;1.02;;;1.00;;
5341;SDS011;2693;48.822;9.062;2023-12-29T14:23:06;1.10;;;1.10;;
5341;SDS011;2693;48.822;9.062;2023-12-29T14:25:33;1.20;;;1.10;;
5341;SDS011;2693;48.822;9.062;2023-12-29T14:28:01;1.55;;;0.82;;
5341;SDS011;2693;48.822;9.062;2023-12-29T14:30:27;1.10;;;1.00;;
5341;SDS011;2693;48.822;9.062;2023-12-29T14:32:56;1.27;;;1.13;;
5341;SDS011;2693;48.822;9.062;2023-12-29T14:35:21;1.20;;;1.08;;
5341;SDS011;2693;48.822;9.062;2023-12-29T14:37:47;1.23;;;1.13;;
5341;SDS011;2693;48.822;9.062;2023-12-29T14:40:12;0.93;;;0.80;;
5341;SDS011;2693;48.822;9.062;2023-12-29T14:42:37;1.20;;;1.10;;
5341;SDS011;2693;48.822;9.062;2023-12-29T14:45:05;1.30;;;1.17;;
5341;SDS011;2693;48.822;9.062;2023-12-29T14:47:32;1.90;;;1.20;;
5341;SDS011;2693;48.822;9.062;2023-12-29T14:49:58;1.38;;;1.15;;
5341;SDS011;2693;48.822;9.062;2023-12-29T14:52:24;1.95;;;1.40;;
5341;SDS011;2693;48.822;9.062;2023-12-29T14:54:49;1.67;;;1.35;;
5341;SDS011;2693;48.822;9.062;2023-12-29T14:57:14;1.45;;;1.20;;
5341;SDS011;2693;48.822;9.062;2023-12-29T14:59:40;1.20;;;1.10;;
5341;SDS011;2693;48.822;9.062;2023-12-29T15:02:05;1.08;;;0.82;;
5341;SDS011;2693;48.822;9.062;2023-12-29T15:04:32;1.38;;;1.15;;
5341;SDS011;2693;48.822;9.062;2023-12-29T15:06:58;1.50;;;1.02;;
5341;SDS011;2693;48.822;9.062;2023-12-29T15:09:24;1.02;;;0.90;;
5341;SDS011;2693;48.822;9.062;2023-12-29T15:11:49;1.20;;;1.10;;
5341;SDS011;2693;48.822;9.062;2023-12-29T15:14:17;1.20;;;1.10;;
5341;SDS011;2693;48.822;9.062;2023-12-29T15:16:43;1.50;;;1.10;;
5341;SDS011;2693;48.822;9.062;2023-12-29T15:19:08;1.08;;;0.98;;
5341;SDS011;2693;48.822;9.062;2023-12-29T15:21:34;1.05;;;1.00;;
5341;SDS011;2693;48.822;9.062;2023-12-29T15:23:59;1.30;;;1.00;;
5341;SDS011;2693;48.822;9.062;2023-12-29T15:26:24;1.10;;;1.00;;
5341;SDS011;2693;48.822;9.062;2023-12-29T15:28:50;1.70;;;1.10;;
5341;SDS011;2693;48.822;9.062;2023-12-29T15:31:17;2.10;;;1.83;;
5341;SDS011;2693;48.822;9.062;2023-12-29T15:33:43;1.35;;;1.05;;